Time;durP1;ratioP1;P1;durP2;ratioP2;P2;SDS_P1;SDS_P2;PMS_P1;PMS_P2;Temp;Humidity;BMP_temperature;BMP_pressure;BME280_temperature;BME280_humidity;BME280_pressure;Samples;Min_cycle;Max_cycle;Signal;HPM_P1;HPM_P2
2023/06/17 00:00:53;;;;;;;5.03;4.63;;;;;;;20.53;46.83;95581.81;6094245;23;20761;-88
2023/06/17 00:03:19;;;;;;;4.70;4.30;;;;;;;20.54;46.80;95580.00;6004653;23;20262;-89
2023/06/17 00:06:00;;;;;;;6.63;4.63;;;;;;;20.50;46.60;95581.50;6004060;23;20264;-89
2023/06/17 00:08:36;;;;;;;5.25;4.60;;;;;;;20.49;47.34;95578.09;6055822;23;20172;-88
2023/06/17 00:11:03;;;;;;;4.70;4.30;;;;;;;20.46;47.32;95570.72;6093185;23;20163;-89
2023/06/17 00:13:31;;;;;;;5.53;4.88;;;;;;;20.43;47.18;95578.22;6092423;23;20185;-89
2023/06/17 00:16:02;;;;;;;4.80;4.40;;;;;;;20.40;47.32;95574.28;6093045;23;20239;-89
2023/06/17 00:18:32;;;;;;;5.07;4.68;;;;;;;20.39;47.86;95574.53;6092737;23;20198;-88
2023/06/17 00:21:29;;;;;;;4.85;4.30;;;;;;;20.33;47.95;95569.19;6092954;23;20180;-89
2023/06/17 00:24:18;;;;;;;;;;;;;;;;;;;;;
2023/06/17 00:26:45;;;;;;;5.47;4.68;;;;;;;20.20;48.51;95572.13;6093529;23;20549;-89
2023/06/17 00:29:18;;;;;;;5.07;4.57;;;;;;;20.21;48.37;95560.59;6093290;23;20560;-89
2023/06/17 00:31:56;;;;;;;4.88;4.47;;;;;;;20.19;48.65;95564.50;6093245;23;20223;-89
2023/06/17 00:34:25;;;;;;;4.60;4.20;;;;;;;20.14;48.58;95567.03;6093019;23;20207;-88
2023/06/17 00:37:07;;;;;;;4.82;4.43;;;;;;;20.14;48.96;95553.97;6093434;23;20177;-88
2023/06/17 00:39:39;;;;;;;4.88;4.45;;;;;;;20.12;49.16;95553.41;6093372;23;20161;-89
2023/06/17 00:42:11;;;;;;;4.82;4.43;;;;;;;20.12;48.59;95545.56;6093557;23;20160;-88
2023/06/17 00:44:43;;;;;;;4.85;4.40;;;;;;;20.13;48.79;95553.16;6092494;23;20693;-88
2023/06/17 00:47:18;;;;;;;6.53;4.43;;;;;;;20.04;49.33;95557.19;6092789;23;20164;-89
2023/06/17 00:52:35;;;;;;;5.68;4.03;;;;;;;19.79;50.31;95549.72;6079309;23;20227;-88
2023/06/17 00:55:05;;;;;;;4.95;4.55;;;;;;;19.78;50.67;95550.75;6092949;23;20274;-89
2023/06/17 00:57:53;;;;;;;5.63;4.82;;;;;;;19.82;50.15;95551.84;6092921;23;20212;-89
2023/06/17 01:00:27;;;;;;;6.25;4.43;;;;;;;19.82;50.87;95557.06;6092986;23;20180;-88
2023/06/17 01:03:05;;;;;;;4.65;4.25;;;;;;;19.82;50.93;95559.69;6092736;23;20686;-90
2023/06/17 01:05:56;;;;;;;5.07;4.50;;;;;;;19.77;51.59;95557.00;6092199;23;20203;-89
2023/06/17 01:08:44;;;;;;;6.75;4.57;;;;;;;19.77;51.66;95561.44;6091585;23;20176;-89
2023/06/17 01:11:17;;;;;;;5.88;4.57;;;;;;;19.75;51.08;95553.03;6093257;23;20168;-88
2023/06/17 01:13:53;;;;;;;4.90;4.50;;;;;;;19.69;51.52;95561.78;6093422;23;20203;-89
2023/06/17 01:16:33;;;;;;;5.45;4.53;;;;;;;19.61;52.12;95555.13;6092971;23;20515;-88
2023/06/17 01:19:18;;;;;;;5.07;4.68;;;;;;;19.59;51.89;95563.22;6105877;23;20194;-88
2023/06/17 01:21:53;;;;;;;4.57;4.18;;;;;;;19.59;51.97;95559.81;6093630;23;20216;-89
2023/06/17 01:24:33;;;;;;;5.05;4.55;;;;;;;19.52;52.53;95559.94;6091376;23;20207;-88
2023/06/17 01:29:49;;;;;;;4.80;4.40;;;;;;;19.51;52.46;95562.78;6092332;23;20176;-88
2023/06/17 01:32:19;;;;;;;5.35;4.90;;;;;;;19.49;52.59;95562.19;6093260;23;20189;-88
2023/06/17 01:35:14;;;;;;;5.03;4.55;;;;;;;19.45;52.99;95555.81;6092688;23;20208;-88
2023/06/17 01:38:03;;;;;;;5.03;4.63;;;;;;;19.42;53.21;95562.34;6093063;23;20192;-89
2023/06/17 01:40:35;;;;;;;5.60;4.38;;;;;;;19.43;53.17;95557.91;6093101;23;20176;-88
2023/06/17 01:43:16;;;;;;;5.45;4.63;;;;;;;19.32;53.71;95559.50;6092544;23;20239;-88
2023/06/17 01:45:53;;;;;;;5.18;4.68;;;;;;;19.31;53.43;95561.31;6092466;23;20161;-88
2023/06/17 01:48:22;;;;;;;5.28;4.80;;;;;;;19.32;53.15;95564.72;6093038;23;20186;-89
2023/06/17 01:50:51;;;;;;;5.43;4.60;;;;;;;19.24;53.71;95568.47;6087944;23;20180;-89
2023/06/17 01:53:25;;;;;;;5.10;4.60;;;;;;;19.22;54.03;95570.56;6093042;23;20557;-88
2023/06/17 01:55:58;;;;;;;5.63;4.78;;;;;;;19.21;54.28;95566.38;6092897;23;20168;-88
2023/06/17 02:01:19;;;;;;;5.35;4.90;;;;;;;19.21;54.52;95565.56;6090317;23;20517;-89
2023/06/17 02:03:58;;;;;;;6.10;4.75;;;;;;;19.18;54.19;95568.63;6092505;23;20192;-88
2023/06/17 02:06:25;;;;;;;5.43;5.00;;;;;;;19.20;53.70;95567.38;6092397;23;20179;-88
2023/06/17 02:08:56;;;;;;;6.97;4.35;;;;;;;19.11;54.77;95563.53;6093069;23;20648;-89
2023/06/17 02:11:30;;;;;;;4.97;4.57;;;;;;;19.11;54.32;95557.50;6092353;23;20231;-89
2023/06/17 02:13:59;;;;;;;5.25;4.75;;;;;;;19.04;55.10;95555.06;6092573;23;20200;-89
2023/06/17 02:16:32;;;;;;;5.13;4.72;;;;;;;18.95;55.33;95554.59;6092525;23;20180;-89
2023/06/17 02:19:03;;;;;;;4.72;4.32;;;;;;;18.96;55.21;95555.38;6092618;23;20203;-88
2023/06/17 02:21:29;;;;;;;4.90;4.43;;;;;;;19.00;54.84;95560.94;6092925;23;20313;-88
2023/06/17 02:23:56;;;;;;;5.30;4.80;;;;;;;19.02;54.48;95556.28;6092783;23;20528;-89
2023/06/17 02:26:23;;;;;;;4.93;4.53;;;;;;;19.01;54.81;95555.50;6093234;23;20263;-88
2023/06/17 02:28:56;;;;;;;4.97;4.50;;;;;;;19.02;54.89;95553.69;6092764;23;20247;-89
2023/06/17 02:31:35;;;;;;;4.43;4.03;;;;;;;18.99;54.72;95547.09;6091650;23;20176;-88
2023/06/17 02:34:10;;;;;;;5.03;4.55;;;;;;;18.95;54.85;95553.81;6091751;23;20199;-88
2023/06/17 02:36:45;;;;;;;4.75;4.32;;;;;;;18.99;54.49;95549.72;6091656;23;20238;-88
2023/06/17 02:39:21;;;;;;;5.15;4.65;;;;;;;18.92;54.80;95554.25;6092637;23;20509;-88
2023/06/17 02:41:55;;;;;;;4.75;4.32;;;;;;;18.79;55.63;95554.50;6091507;23;20654;-89
2023/06/17 02:44:30;;;;;;;5.75;4.25;;;;;;;18.76;55.49;95563.56;6091716;23;20275;-88
2023/06/17 02:46:59;;;;;;;5.18;4.70;;;;;;;18.81;55.27;95561.09;6092022;23;20164;-88
2023/06/17 02:49:33;;;;;;;5.28;4.82;;;;;;;18.83;55.16;95559.03;6092657;23;20208;-88
2023/06/17 02:51:59;;;;;;;4.78;4.35;;;;;;;18.86;55.06;95557.75;6092498;23;20240;-88
2023/06/17 02:54:32;;;;;;;6.07;4.57;;;;;;;18.80;56.00;95564.72;6091448;23;20207;-88
2023/06/17 02:57:04;;;;;;;4.90;4.50;;;;;;;18.80;55.73;95559.50;6092208;23;20243;-88
2023/06/17 02:59:38;;;;;;;5.82;4.45;;;;;;;18.85;55.47;95561.44;6092235;23;20196;-89
2023/06/17 03:02:06;;;;;;;5.07;4.68;;;;;;;18.67;56.03;95570.13;6091952;23;20199;-88
2023/06/17 03:04:38;;;;;;;4.50;4.13;;;;;;;18.66;56.12;95565.19;6091878;23;20740;-88
2023/06/17 03:07:13;;;;;;;5.13;4.63;;;;;;;18.67;55.94;95564.13;6091107;23;20200;-88
2023/06/17 03:09:39;;;;;;;4.85;4.45;;;;;;;18.70;55.60;95564.47;6091228;23;20176;-88
2023/06/17 03:12:16;;;;;;;4.90;4.50;;;;;;;18.72;55.62;95561.63;6091639;23;20183;-89
2023/06/17 03:14:47;;;;;;;4.88;4.38;;;;;;;18.69;55.74;95569.91;6091589;23;20228;-89
2023/06/17 03:17:21;;;;;;;5.38;4.88;;;;;;;18.66;55.63;95563.38;6092143;23;20164;-88
2023/06/17 03:19:48;;;;;;;7.07;4.88;;;;;;;18.62;55.91;95560.41;6092114;23;20195;-89
2023/06/17 03:22:14;;;;;;;4.72;4.32;;;;;;;18.63;55.58;95567.22;6091674;23;20187;-89
2023/06/17 03:24:41;;;;;;;5.15;4.65;;;;;;;18.67;55.69;95553.69;6092037;23;20197;-88
2023/06/17 03:27:18;;;;;;;5.15;4.60;;;;;;;18.63;56.00;95563.81;6094368;23;20184;-90
2023/06/17 03:29:48;;;;;;;4.68;4.28;;;;;;;18.62;55.47;95559.63;6090970;23;20156;-89
2023/06/17 03:32:21;;;;;;;4.72;4.32;;;;;;;18.55;56.27;95562.28;6090813;23;20172;-89
2023/06/17 03:34:58;;;;;;;5.30;4.80;;;;;;;18.54;56.48;95558.09;6091211;23;20199;-89
2023/06/17 03:37:25;;;;;;;5.25;4.75;;;;;;;18.48;56.12;95553.78;6091950;23;20165;-89
2023/06/17 03:39:51;;;;;;;5.25;4.22;;;;;;;18.46;56.30;95561.06;6091552;23;20250;-89
2023/06/17 03:42:27;;;;;;;4.82;4.32;;;;;;;18.47;56.58;95562.63;6092917;23;20176;-89
2023/06/17 03:45:03;;;;;;;4.50;4.20;;;;;;;18.47;56.45;95567.84;6092611;23;20202;-89
2023/06/17 03:47:40;;;;;;;4.75;4.35;;;;;;;18.44;56.61;95557.88;6092480;23;20179;-89
2023/06/17 03:50:08;;;;;;;4.63;4.22;;;;;;;18.37;56.52;95554.59;6092443;23;20161;-89
2023/06/17 03:52:46;;;;;;;5.07;4.28;;;;;;;18.44;56.58;95563.09;6092785;23;20215;-88
2023/06/17 03:55:13;;;;;;;4.93;4.53;;;;;;;18.49;56.24;95565.00;6092110;23;20255;-89
2023/06/17 03:57:41;;;;;;;4.50;4.10;;;;;;;18.49;56.68;95565.81;6092365;23;20296;-88
2023/06/17 04:00:10;;;;;;;4.75;4.35;;;;;;;18.49;56.42;95567.63;6092220;23;20180;-88
2023/06/17 04:02:45;;;;;;;4.85;4.45;;;;;;;18.50;56.45;95564.00;6093127;23;20210;-89
2023/06/17 04:05:12;;;;;;;4.70;4.30;;;;;;;18.53;56.12;95571.34;6092668;23;20201;-88
2023/06/17 04:08:02;;;;;;;5.20;4.72;;;;;;;18.54;56.49;95568.53;6091901;23;20177;-88
2023/06/17 04:10:29;;;;;;;5.25;4.75;;;;;;;18.56;56.34;95574.31;6092733;23;20165;-88
2023/06/17 04:13:06;;;;;;;5.10;4.60;;;;;;;18.52;56.88;95573.19;6093034;23;20177;-89
2023/06/17 04:15:33;;;;;;;4.70;4.30;;;;;;;18.61;56.08;95576.28;6092793;23;20663;-88
2023/06/17 04:18:03;;;;;;;4.97;4.57;;;;;;;18.67;56.11;95580.56;6093214;23;20203;-88
2023/06/17 04:20:32;;;;;;;7.70;4.30;;;;;;;18.71;55.92;95579.09;6092673;23;20168;-88
2023/06/17 04:22:59;;;;;;;4.70;4.15;;;;;;;18.74;55.92;95570.84;6093096;23;20181;-88
2023/06/17 04:25:32;;;;;;;4.97;4.47;;;;;;;18.75;56.19;95580.25;6092608;23;20260;-89
2023/06/17 04:28:02;;;;;;;4.80;4.43;;;;;;;18.77;55.96;95572.19;6092765;23;20172;-88
2023/06/17 04:30:28;;;;;;;4.25;3.85;;;;;;;18.80;56.20;95579.56;6092021;23;20219;-89
2023/06/17 04:33:00;;;;;;;5.32;4.70;;;;;;;18.81;55.80;95573.34;6091899;23;20686;-88
2023/06/17 04:35:35;;;;;;;5.60;4.80;;;;;;;18.84;56.22;95578.09;6091848;23;20525;-88
2023/06/17 04:38:02;;;;;;;5.15;4.68;;;;;;;18.91;56.08;95571.72;6091502;23;20179;-89
2023/06/17 04:40:32;;;;;;;5.38;4.88;;;;;;;18.92;56.26;95575.91;6092101;23;20176;-88
2023/06/17 04:43:01;;;;;;;5.78;4.80;;;;;;;18.98;56.19;95572.41;6092739;23;20181;-89
2023/06/17 04:45:44;;;;;;;4.93;4.53;;;;;;;19.07;56.02;95575.44;6085670;23;20278;-88
2023/06/17 04:48:14;;;;;;;5.00;4.35;;;;;;;19.11;56.17;95576.56;6093166;23;20160;-88
2023/06/17 04:50:42;;;;;;;4.97;4.57;;;;;;;19.19;55.54;95576.22;6092874;23;20180;-88
2023/06/17 04:53:14;;;;;;;6.32;4.78;;;;;;;19.26;55.64;95574.28;6092750;23;20180;-88
2023/06/17 04:56:06;;;;;;;4.80;4.40;;;;;;;19.28;55.81;95571.44;6092012;23;20231;-89
2023/06/17 04:58:41;;;;;;;5.13;4.72;;;;;;;19.35;55.73;95573.94;6088808;23;20196;-89
2023/06/17 05:01:12;;;;;;;5.20;4.80;;;;;;;19.44;55.84;95577.75;6092515;23;20223;-89
2023/06/17 05:03:38;;;;;;;5.15;4.65;;;;;;;19.51;55.29;95574.00;6092209;23;20445;-89
2023/06/17 05:06:07;;;;;;;4.85;4.30;;;;;;;19.61;55.09;95568.19;6091635;23;20184;-89
2023/06/17 05:08:37;;;;;;;5.88;4.53;;;;;;;19.67;54.91;95573.28;6091447;23;20180;-88
2023/06/17 05:11:17;;;;;;;6.90;4.50;;;;;;;19.74;54.72;95567.13;6091632;23;20199;-89
2023/06/17 05:13:45;;;;;;;5.40;4.57;;;;;;;19.84;54.44;95567.28;6092222;23;20227;-89
2023/06/17 05:16:14;;;;;;;4.70;4.32;;;;;;;19.91;54.32;95567.94;6092075;23;20188;-89
2023/06/17 05:18:41;;;;;;;6.20;4.60;;;;;;;19.95;54.02;95569.84;6091859;23;20196;-89
2023/06/17 05:21:07;;;;;;;5.43;4.93;;;;;;;20.01;53.97;95574.13;6092252;23;20183;-89
2023/06/17 05:23:37;;;;;;;4.55;4.15;;;;;;;20.02;54.09;95573.09;6092354;23;20172;-88
2023/06/17 05:26:18;;;;;;;10.48;4.53;;;;;;;20.04;53.77;95572.06;6092603;23;20176;-89
2023/06/17 05:28:46;;;;;;;5.10;4.60;;;;;;;20.13;53.15;95576.69;6074066;23;20176;-89
2023/06/17 05:31:19;;;;;;;5.32;4.40;;;;;;;20.15;53.15;95579.06;6092492;23;20180;-89
2023/06/17 05:33:45;;;;;;;6.30;4.57;;;;;;;20.25;53.05;95585.25;6091582;23;20664;-88
2023/06/17 05:36:12;;;;;;;4.93;4.53;;;;;;;20.32;52.98;95578.06;6091869;23;20210;-89
2023/06/17 05:38:38;;;;;;;5.05;4.55;;;;;;;20.38;52.68;95588.63;6091745;23;20203;-89
2023/06/17 05:41:05;;;;;;;5.80;4.38;;;;;;;20.44;52.71;95585.06;6091446;23;20652;-89
2023/06/17 05:43:46;;;;;;;4.78;4.38;;;;;;;20.51;52.25;95583.88;6091900;23;20180;-89
2023/06/17 05:46:13;;;;;;;6.93;4.60;;;;;;;20.52;52.14;95588.06;6092403;23;20552;-88
2023/06/17 05:48:40;;;;;;;4.78;4.35;;;;;;;20.56;52.24;95583.97;6092089;23;20466;-89
2023/06/17 05:51:14;;;;;;;4.80;4.40;;;;;;;20.57;51.93;95579.53;6091718;23;20549;-89
2023/06/17 05:53:44;;;;;;;4.70;4.30;;;;;;;20.59;52.02;95587.94;6092277;23;20186;-89
2023/06/17 05:56:10;;;;;;;4.55;4.18;;;;;;;20.57;51.79;95584.75;6091853;23;20259;-88
2023/06/17 05:58:37;;;;;;;4.68;4.20;;;;;;;20.66;51.48;95586.72;6091700;23;20622;-88
2023/06/17 06:01:05;;;;;;;5.28;4.57;;;;;;;20.65;50.94;95592.97;6092175;23;20176;-88
2023/06/17 06:03:31;;;;;;;4.60;4.20;;;;;;;20.82;50.95;95582.50;6091045;23;20258;-89
2023/06/17 06:05:58;;;;;;;7.68;4.07;;;;;;;20.96;50.85;95586.38;6091889;23;20648;-89
2023/06/17 06:08:33;;;;;;;7.78;4.70;;;;;;;21.04;50.17;95587.75;6090859;23;20176;-88
2023/06/17 06:11:02;;;;;;;5.13;4.63;;;;;;;21.00;50.28;95590.06;6091351;23;20175;-89
2023/06/17 06:13:29;;;;;;;4.93;4.53;;;;;;;20.98;50.41;95594.75;6091619;23;20183;-89
2023/06/17 06:15:57;;;;;;;4.57;4.20;;;;;;;21.03;49.93;95592.22;6091617;23;20695;-89
2023/06/17 06:18:25;;;;;;;4.88;4.47;;;;;;;21.11;50.07;95591.00;6090880;23;20183;-89
2023/06/17 06:20:54;;;;;;;4.75;4.28;;;;;;;21.06;49.96;95590.94;6091893;23;20578;-89
2023/06/17 06:23:20;;;;;;;6.25;4.22;;;;;;;21.15;49.77;95593.94;6091893;23;20202;-88
2023/06/17 06:25:47;;;;;;;5.25;4.75;;;;;;;21.20;49.79;95597.44;6091091;23;20528;-89
2023/06/17 06:28:13;;;;;;;6.50;4.40;;;;;;;21.35;49.32;95602.88;6091527;23;20207;-89
2023/06/17 06:30:40;;;;;;;5.53;4.53;;;;;;;21.43;48.86;95603.47;6091676;23;20183;-89
2023/06/17 06:33:06;;;;;;;4.50;4.10;;;;;;;21.52;48.56;95607.28;6091462;23;20180;-89
2023/06/17 06:35:42;;;;;;;5.00;4.50;;;;;;;21.63;48.56;95604.50;6091731;23;20199;-89
2023/06/17 06:38:08;;;;;;;4.80;4.28;;;;;;;21.68;48.14;95606.41;6092311;23;20496;-89
2023/06/17 06:40:34;;;;;;;5.05;4.53;;;;;;;21.69;47.49;95606.16;6091707;23;20200;-89
2023/06/17 06:43:01;;;;;;;5.32;4.88;;;;;;;21.74;46.73;95608.06;6092060;23;20266;-88
2023/06/17 06:45:28;;;;;;;4.75;4.35;;;;;;;21.80;46.84;95606.25;6092211;23;20196;-88
2023/06/17 06:47:55;;;;;;;7.32;4.45;;;;;;;21.85;47.54;95612.34;6090287;23;20185;-89
2023/06/17 06:50:25;;;;;;;5.55;4.22;;;;;;;21.98;47.04;95598.06;6091718;23;20180;-89
2023/06/17 06:52:59;;;;;;;5.13;4.55;;;;;;;22.09;46.17;95612.09;6091516;23;20176;-89
2023/06/17 06:55:26;;;;;;;5.88;4.60;;;;;;;22.15;45.74;95609.25;6091315;23;20246;-89
2023/06/17 06:57:52;;;;;;;4.60;4.20;;;;;;;22.18;46.01;95614.00;6091242;23;20187;-89
2023/06/17 07:00:31;;;;;;;4.80;4.40;;;;;;;22.15;44.35;95608.47;6091284;23;20200;-89
2023/06/17 07:03:03;;;;;;;4.80;4.40;;;;;;;22.18;44.54;95616.63;6091903;23;20231;-89
2023/06/17 07:05:29;;;;;;;5.20;4.30;;;;;;;22.22;44.74;95611.69;6091605;23;20203;-89
2023/06/17 07:07:58;;;;;;;5.50;4.47;;;;;;;22.31;44.46;95616.25;6090579;23;20183;-89
2023/06/17 07:10:27;;;;;;;4.88;4.45;;;;;;;22.37;44.23;95612.63;6091956;23;20652;-89
2023/06/17 07:12:55;;;;;;;5.35;4.35;;;;;;;22.42;44.58;95608.47;6091376;23;20251;-89
2023/06/17 07:15:31;;;;;;;4.97;4.45;;;;;;;22.48;44.47;95615.34;6092581;23;20263;-89
2023/06/17 07:21:07;;;;;;;9.02;5.18;;;;;;;22.63;43.13;95615.44;6091796;23;20740;-88
2023/06/17 07:23:35;;;;;;;4.82;4.43;;;;;;;22.73;43.28;95623.38;6092835;23;20168;-89
2023/06/17 07:26:02;;;;;;;4.60;4.20;;;;;;;22.74;42.92;95622.34;6093778;23;20715;-89
2023/06/17 07:28:46;;;;;;;;;;;;;;;;;;;;;
2023/06/17 07:31:17;;;;;;;6.22;4.30;;;;;;;22.78;42.24;95620.84;6093398;23;20180;-89
2023/06/17 07:33:44;;;;;;;5.13;4.63;;;;;;;22.81;42.16;95609.84;6092725;23;20285;-89
2023/06/17 07:36:10;;;;;;;7.38;4.05;;;;;;;22.92;42.58;95615.94;6092976;23;20180;-89
2023/06/17 07:38:59;;;;;;;5.43;3.92;;;;;;;22.93;42.48;95613.06;6093474;23;20176;-89
2023/06/17 07:41:28;;;;;;;4.57;4.15;;;;;;;23.01;42.06;95611.81;6093014;23;20175;-89
2023/06/17 07:44:07;;;;;;;4.28;3.88;;;;;;;23.01;41.35;95612.59;6093102;23;20239;-89
2023/06/17 07:46:34;;;;;;;4.43;4.05;;;;;;;23.07;41.26;95614.22;6093126;23;20179;-89
2023/06/17 07:49:38;;;;;;;3.90;3.60;;;;;;;23.04;40.45;95606.84;6093487;23;20173;-89
2023/06/17 07:52:05;;;;;;;6.78;4.22;;;;;;;23.14;40.78;95613.19;6090563;23;20183;-89
2023/06/17 07:54:35;;;;;;;4.18;3.70;;;;;;;23.28;41.13;95607.22;6093190;23;20196;-89
2023/06/17 07:57:37;;;;;;;6.78;3.90;;;;;;;23.38;39.40;95611.72;6092901;23;20176;-89
2023/06/17 08:00:30;;;;;;;4.07;3.67;;;;;;;23.51;39.91;95608.63;6092487;23;20695;-89
2023/06/17 08:03:07;;;;;;;5.40;4.20;;;;;;;23.62;39.48;95609.50;6092476;23;20172;-89
2023/06/17 08:08:29;;;;;;;4.68;4.10;;;;;;;23.90;39.67;95597.72;6091688;23;20172;-89
2023/06/17 08:11:08;;;;;;;4.68;4.00;;;;;;;23.94;39.08;95604.84;6092808;23;20538;-88
2023/06/17 08:13:40;;;;;;;4.85;4.20;;;;;;;24.01;38.07;95592.25;6092981;23;20160;-89
2023/06/17 08:16:09;;;;;;;4.40;4.05;;;;;;;24.06;38.96;95594.09;6092146;23;20186;-89
2023/06/17 08:19:07;;;;;;;4.68;4.28;;;;;;;24.20;38.87;95586.50;6093075;23;20676;-88
2023/06/17 08:21:41;;;;;;;4.50;4.10;;;;;;;24.29;37.80;95591.00;6091702;23;20187;-89
2023/06/17 08:24:21;;;;;;;4.22;3.67;;;;;;;24.44;37.35;95591.00;6092702;23;20191;-89
2023/06/17 08:26:51;;;;;;;4.47;3.80;;;;;;;24.61;36.47;95580.22;6092616;23;20172;-89
2023/06/17 08:29:20;;;;;;;4.25;3.72;;;;;;;24.77;36.66;95586.25;6093127;23;20557;-89
2023/06/17 08:34:56;;;;;;;4.80;4.35;;;;;;;24.61;34.92;95582.06;6086885;23;20275;-86
2023/06/17 08:37:37;;;;;;;11.35;4.45;;;;;;;24.58;35.21;95585.22;6092591;23;20177;-89
2023/06/17 08:40:22;;;;;;;7.28;4.22;;;;;;;24.87;35.41;95580.94;6088134;23;20693;-89
2023/06/17 08:43:02;;;;;;;4.75;4.00;;;;;;;25.11;33.92;95582.00;6092868;23;20173;-89
2023/06/17 08:45:38;;;;;;;4.75;4.25;;;;;;;25.36;34.40;95573.22;6092385;23;20200;-89
2023/06/17 08:48:06;;;;;;;4.68;4.28;;;;;;;25.47;34.42;95572.09;6092283;23;20159;-89
2023/06/17 08:50:34;;;;;;;5.50;4.35;;;;;;;25.28;34.05;95568.50;6092327;23;20182;-89
2023/06/17 08:53:03;;;;;;;5.15;4.13;;;;;;;25.21;33.48;95567.22;6092190;23;20172;-89
2023/06/17 08:55:39;;;;;;;5.78;4.20;;;;;;;25.37;33.96;95574.00;6091995;23;20201;-89
2023/06/17 08:58:08;;;;;;;5.45;4.95;;;;;;;25.46;33.64;95573.16;6092073;23;20258;-89
2023/06/17 09:00:35;;;;;;;5.63;5.13;;;;;;;25.44;32.90;95564.72;6092681;23;20230;-89
2023/06/17 09:03:04;;;;;;;5.20;4.70;;;;;;;25.50;32.96;95567.34;6092047;23;20678;-89
2023/06/17 09:05:33;;;;;;;4.88;4.43;;;;;;;25.33;33.26;95563.19;6092269;23;20195;-89
2023/06/17 09:08:00;;;;;;;5.63;4.70;;;;;;;25.59;33.57;95563.91;6091227;23;20198;-89
2023/06/17 09:10:28;;;;;;;4.93;4.43;;;;;;;25.72;34.10;95560.69;6091787;23;20516;-89
2023/06/17 09:13:11;;;;;;;4.60;4.20;;;;;;;25.90;32.15;95561.91;6092060;23;20716;-89
2023/06/17 09:15:49;;;;;;;4.63;4.22;;;;;;;26.05;32.74;95559.16;6091333;23;20578;-89
2023/06/17 09:18:22;;;;;;;4.95;4.18;;;;;;;26.34;32.94;95563.75;6092147;23;20182;-89
2023/06/17 09:21:15;;;;;;;6.10;4.85;;;;;;;26.51;31.44;95558.06;6092058;23;20208;-89
2023/06/17 09:23:55;;;;;;;6.03;4.35;;;;;;;26.47;30.48;95552.53;6060459;23;20481;-89
2023/06/17 09:26:25;;;;;;;4.57;4.18;;;;;;;26.60;30.77;95551.09;6091693;23;20212;-90
2023/06/17 09:28:51;;;;;;;7.43;4.30;;;;;;;26.75;30.80;95557.00;6092212;23;20176;-89
2023/06/17 09:31:19;;;;;;;5.55;4.90;;;;;;;26.80;30.93;95554.31;6092173;23;20183;-89
2023/06/17 09:34:04;;;;;;;5.85;4.40;;;;;;;27.00;29.24;95550.72;6091791;23;20173;-89
2023/06/17 09:36:31;;;;;;;4.85;4.35;;;;;;;26.92;30.31;95545.25;6092642;23;20164;-89
2023/06/17 09:38:57;;;;;;;5.13;4.50;;;;;;;26.64;29.91;95547.63;6091856;23;20183;-89
2023/06/17 09:41:25;;;;;;;5.38;4.20;;;;;;;26.51;29.60;95544.84;6091317;23;20271;-89
2023/06/17 09:43:54;;;;;;;4.90;4.50;;;;;;;26.44;30.17;95538.03;6092060;23;20907;-89
2023/06/17 09:46:29;;;;;;;5.18;4.65;;;;;;;26.22;29.90;95527.09;6091428;23;20648;-90
2023/06/17 09:49:02;;;;;;;5.30;4.80;;;;;;;26.36;30.14;95543.88;6092061;23;20635;-89
2023/06/17 09:51:36;;;;;;;5.03;4.63;;;;;;;26.02;30.43;95551.00;6092088;23;20631;-89
2023/06/17 09:54:04;;;;;;;6.22;5.70;;;;;;;25.74;30.89;95547.22;6091131;23;20276;-89
2023/06/17 09:56:32;;;;;;;7.43;4.65;;;;;;;26.14;30.25;95539.03;6092086;23;20179;-90
2023/06/17 09:58:58;;;;;;;4.50;4.07;;;;;;;26.59;29.91;95541.59;6091589;23;20184;-89
2023/06/17 10:01:39;;;;;;;4.95;4.05;;;;;;;26.79;29.65;95544.03;6091450;23;20257;-89
2023/06/17 10:04:06;;;;;;;6.38;4.78;;;;;;;26.51;29.49;95535.06;6091863;23;20527;-89
2023/06/17 10:06:35;;;;;;;4.90;4.40;;;;;;;26.30;29.91;95547.66;6090839;23;20191;-89
2023/06/17 10:09:06;;;;;;;4.88;4.18;;;;;;;26.46;28.92;95535.09;6092362;23;20176;-89
2023/06/17 10:11:37;;;;;;;4.70;4.40;;;;;;;26.63;29.20;95532.84;6092054;23;20167;-89
2023/06/17 10:14:08;;;;;;;4.45;4.07;;;;;;;26.56;29.69;95539.50;6091341;23;20212;-89
2023/06/17 10:16:40;;;;;;;4.75;4.30;;;;;;;26.38;29.53;95539.13;6091478;23;20187;-88
2023/06/17 10:19:10;;;;;;;5.45;4.95;;;;;;;26.27;30.14;95548.19;6091605;23;20171;-89
2023/06/17 10:21:47;;;;;;;5.85;5.38;;;;;;;26.02;30.04;95543.06;6091300;23;20196;-89
2023/06/17 10:24:14;;;;;;;5.93;4.38;;;;;;;26.40;30.09;95530.94;6091621;23;20203;-89
2023/06/17 10:26:41;;;;;;;5.72;4.90;;;;;;;26.78;29.21;95534.53;6091904;23;20182;-89
2023/06/17 10:29:10;;;;;;;5.40;4.90;;;;;;;27.17;29.44;95527.25;6091816;23;20175;-89
2023/06/17 10:31:40;;;;;;;4.85;4.35;;;;;;;27.60;28.26;95537.09;6091316;23;20176;-89
2023/06/17 10:34:14;;;;;;;4.70;4.30;;;;;;;27.42;28.97;95528.03;6091436;23;20224;-89
2023/06/17 10:36:40;;;;;;;5.10;4.70;;;;;;;27.18;29.00;95523.56;6091753;23;20160;-89
2023/06/17 10:39:10;;;;;;;4.82;4.40;;;;;;;27.13;28.52;95525.47;6091571;23;20180;-89
2023/06/17 10:41:57;;;;;;;5.93;4.28;;;;;;;26.84;28.86;95522.84;6091551;23;20232;-89
2023/06/17 10:44:43;;;;;;;5.72;4.68;;;;;;;26.84;29.58;95518.34;6091416;23;20203;-89
2023/06/17 10:47:21;;;;;;;5.18;4.78;;;;;;;27.28;28.80;95519.22;6091514;23;20699;-89
2023/06/17 10:49:48;;;;;;;6.03;5.43;;;;;;;27.70;28.71;95516.59;6092132;23;20185;-90
2023/06/17 10:52:32;;;;;;;10.60;9.63;;;;;;;27.83;28.41;95505.28;6093578;23;20231;-89
2023/06/17 10:54:58;;;;;;;5.13;4.72;;;;;;;27.96;27.80;95506.38;6093369;23;20196;-89
2023/06/17 10:57:30;;;;;;;6.60;4.70;;;;;;;28.14;26.98;95500.28;6093663;23;20175;-88
2023/06/17 11:00:10;;;;;;;5.25;4.75;;;;;;;28.14;26.63;95507.44;6093172;23;20180;-89
2023/06/17 11:02:39;;;;;;;5.07;4.55;;;;;;;28.06;26.10;95497.53;6093517;23;20195;-89
2023/06/17 11:05:07;;;;;;;5.80;4.68;;;;;;;28.15;26.29;95485.19;6093553;23;20196;-89
2023/06/17 11:07:34;;;;;;;4.85;4.45;;;;;;;28.44;26.81;95477.06;6091954;23;20239;-89
2023/06/17 11:10:18;;;;;;;5.43;4.93;;;;;;;27.95;26.00;95478.34;6093625;23;20183;-89
2023/06/17 11:12:46;;;;;;;5.15;4.68;;;;;;;27.52;26.93;95491.63;6093450;23;20660;-89
2023/06/17 11:15:12;;;;;;;5.20;4.70;;;;;;;27.55;27.28;95490.28;6092912;23;20236;-89
2023/06/17 11:17:40;;;;;;;5.85;4.88;;;;;;;27.91;27.09;95484.50;6093547;23;20177;-89
2023/06/17 11:20:08;;;;;;;5.78;4.60;;;;;;;28.21;26.69;95475.34;6093315;23;20176;-89
2023/06/17 11:22:40;;;;;;;5.38;4.72;;;;;;;28.47;26.41;95476.47;6093818;23;20177;-89
2023/06/17 11:25:12;;;;;;;5.38;4.57;;;;;;;28.66;26.81;95479.06;6092944;23;20220;-89
2023/06/17 11:27:40;;;;;;;5.00;4.50;;;;;;;28.77;26.64;95477.78;6092699;23;20168;-89
2023/06/17 11:30:16;;;;;;;6.35;4.60;;;;;;;28.83;25.79;95471.34;6093079;23;20200;-88
2023/06/17 11:32:45;;;;;;;5.40;5.00;;;;;;;28.74;26.23;95478.34;6092843;23;20160;-89
2023/06/17 11:35:12;;;;;;;7.13;6.00;;;;;;;28.93;26.16;95465.81;6093490;23;20216;-90
2023/06/17 11:37:59;;;;;;;9.25;7.97;;;;;;;28.98;26.42;95465.72;6093427;23;20180;-89
2023/06/17 11:40:26;;;;;;;6.05;5.45;;;;;;;28.96;26.37;95462.56;6093818;23;20231;-88
2023/06/17 11:42:52;;;;;;;7.43;5.78;;;;;;;28.79;26.46;95460.50;6093738;23;20204;-89
2023/06/17 11:45:20;;;;;;;6.40;5.30;;;;;;;28.87;26.47;95469.63;6092635;23;20201;-89
2023/06/17 11:47:48;;;;;;;5.90;5.35;;;;;;;28.86;25.71;95465.44;6092807;23;20258;-89
2023/06/17 11:50:20;;;;;;;5.30;4.80;;;;;;;28.97;25.78;95466.81;6092987;23;20562;-88
2023/06/17 11:52:54;;;;;;;6.07;5.10;;;;;;;28.95;24.76;95460.22;6092917;23;20626;-88
2023/06/17 11:55:39;;;;;;;5.28;4.85;;;;;;;29.03;25.40;95451.59;6093239;23;20200;-89
2023/06/17 11:58:08;;;;;;;5.93;4.78;;;;;;;29.02;25.04;95442.06;6093451;23;20171;-89
2023/06/17 12:00:36;;;;;;;5.35;4.82;;;;;;;29.16;24.52;95438.31;6093511;23;20575;-89
2023/06/17 12:03:11;;;;;;;7.20;6.60;;;;;;;29.30;24.28;95451.53;6092942;23;20184;-89
2023/06/17 12:05:40;;;;;;;8.40;7.80;;;;;;;29.26;23.37;95442.59;6092505;23;20188;-89
2023/06/17 12:08:13;;;;;;;5.30;4.80;;;;;;;29.42;24.23;95429.84;6092140;23;20235;-89
2023/06/17 12:10:40;;;;;;;6.63;5.20;;;;;;;29.63;23.52;95435.47;6090237;23;20208;-88
2023/06/17 12:13:12;;;;;;;6.55;4.90;;;;;;;29.47;23.66;95437.66;6092995;23;20180;-89
2023/06/17 12:15:40;;;;;;;5.30;4.80;;;;;;;29.55;23.83;95431.66;6091968;23;20286;-89
2023/06/17 12:18:11;;;;;;;4.60;4.30;;;;;;;29.75;23.33;95427.75;6092865;23;20710;-88